sensor_id;sensor_type;location;lat;lon;timestamp;temperature;humidity
15296;DHT22;7749;49.964;7.890;2023-09-12T00:01:09;22.30;1.00
15296;DHT22;7749;49.964;7.890;2023-09-12T00:03:36;22.40;1.00
15296;DHT22;7749;49.964;7.890;2023-09-12T00:06:04;22.40;40.70
15296;DHT22;7749;49.964;7.890;2023-09-12T00:08:32;22.30;99.90
15296;DHT22;7749;49.964;7.890;2023-09-12T00:11:01;22.30;99.90
15296;DHT22;7749;49.964;7.890;2023-09-12T00:13:29;22.20;1.00
15296;DHT22;7749;49.964;7.890;2023-09-12T00:15:57;22.10;99.90
15296;DHT22;7749;49.964;7.890;2023-09-12T00:18:25;22.10;99.90
15296;DHT22;7749;49.964;7.890;2023-09-12T00:20:53;22.00;1.00
15296;DHT22;7749;49.964;7.890;2023-09-12T00:23:22;22.00;1.00
15296;DHT22;7749;49.964;7.890;2023-09-12T00:25:50;22.00;1.00
15296;DHT22;7749;49.964;7.890;2023-09-12T00:28:22;22.00;1.00
15296;DHT22;7749;49.964;7.890;2023-09-12T00:30:51;22.00;1.00
15296;DHT22;7749;49.964;7.890;2023-09-12T00:33:19;22.00;1.00
15296;DHT22;7749;49.964;7.890;2023-09-12T00:35:47;22.00;32.50
15296;DHT22;7749;49.964;7.890;2023-09-12T00:38:14;21.90;99.90
15296;DHT22;7749;49.964;7.890;2023-09-12T00:40:42;21.90;99.90
15296;DHT22;7749;49.964;7.890;2023-09-12T00:43:09;22.00;99.90
15296;DHT22;7749;49.964;7.890;2023-09-12T00:45:37;22.00;1.00
15296;DHT22;7749;49.964;7.890;2023-09-12T00:48:06;21.90;1.00
15296;DHT22;7749;49.964;7.890;2023-09-12T00:50:35;22.00;1.00
15296;DHT22;7749;49.964;7.890;2023-09-12T00:53:04;22.00;1.00
15296;DHT22;7749;49.964;7.890;2023-09-12T00:55:32;22.00;1.00
15296;DHT22;7749;49.964;7.890;2023-09-12T00:58:01;22.00;1.00
15296;DHT22;7749;49.964;7.890;2023-09-12T01:00:29;22.10;1.00
15296;DHT22;7749;49.964;7.890;2023-09-12T01:02:58;22.10;1.00
15296;DHT22;7749;49.964;7.890;2023-09-12T01:05:26;22.10;99.90
15296;DHT22;7749;49.964;7.890;2023-09-12T01:07:54;22.10;1.00
15296;DHT22;7749;49.964;7.890;2023-09-12T01:10:22;22.10;1.00
15296;DHT22;7749;49.964;7.890;2023-09-12T01:12:50;22.10;1.00
15296;DHT22;7749;49.964;7.890;2023-09-12T01:15:18;22.10;1.00
15296;DHT22;7749;49.964;7.890;2023-09-12T01:17:46;22.00;4.80
15296;DHT22;7749;49.964;7.890;2023-09-12T01:20:21;21.80;99.90
15296;DHT22;7749;49.964;7.890;2023-09-12T01:27:55;21.50;99.90
15296;DHT22;7749;49.964;7.890;2023-09-12T01:30:25;21.40;1.00
15296;DHT22;7749;49.964;7.890;2023-09-12T01:32:55;21.40;99.90
15296;DHT22;7749;49.964;7.890;2023-09-12T01:35:23;21.40;1.00
15296;DHT22;7749;49.964;7.890;2023-09-12T01:37:50;21.40;1.00
15296;DHT22;7749;49.964;7.890;2023-09-12T01:40:31;21.40;1.00
15296;DHT22;7749;49.964;7.890;2023-09-12T01:43:01;21.30;1.00
15296;DHT22;7749;49.964;7.890;2023-09-12T01:45:29;21.20;1.00
15296;DHT22;7749;49.964;7.890;2023-09-12T01:47:58;21.20;1.00
15296;DHT22;7749;49.964;7.890;2023-09-12T01:50:27;21.20;1.00
15296;DHT22;7749;49.964;7.890;2023-09-12T01:52:55;21.20;1.00
15296;DHT22;7749;49.964;7.890;2023-09-12T01:55:24;21.30;1.00
15296;DHT22;7749;49.964;7.890;2023-09-12T01:57:52;21.40;1.00
15296;DHT22;7749;49.964;7.890;2023-09-12T02:00:20;21.40;1.00
15296;DHT22;7749;49.964;7.890;2023-09-12T02:02:50;21.30;1.00
15296;DHT22;7749;49.964;7.890;2023-09-12T02:05:22;21.20;1.00
15296;DHT22;7749;49.964;7.890;2023-09-12T02:07:50;21.20;1.00
15296;DHT22;7749;49.964;7.890;2023-09-12T02:10:18;21.20;1.00
15296;DHT22;7749;49.964;7.890;2023-09-12T02:12:45;21.20;1.00
15296;DHT22;7749;49.964;7.890;2023-09-12T02:15:13;21.30;1.00
15296;DHT22;7749;49.964;7.890;2023-09-12T02:17:41;21.20;1.00
15296;DHT22;7749;49.964;7.890;2023-09-12T02:20:09;21.20;1.00
15296;DHT22;7749;49.964;7.890;2023-09-12T02:22:37;21.10;1.00
15296;DHT22;7749;49.964;7.890;2023-09-12T02:25:07;21.00;1.00
15296;DHT22;7749;49.964;7.890;2023-09-12T02:27:35;21.00;1.00
15296;DHT22;7749;49.964;7.890;2023-09-12T02:30:03;20.90;1.00
15296;DHT22;7749;49.964;7.890;2023-09-12T02:32:31;20.80;1.00
15296;DHT22;7749;49.964;7.890;2023-09-12T02:34:58;20.70;1.00
15296;DHT22;7749;49.964;7.890;2023-09-12T02:37:26;20.70;1.00
15296;DHT22;7749;49.964;7.890;2023-09-12T02:39:53;20.70;1.00
15296;DHT22;7749;49.964;7.890;2023-09-12T02:42:21;20.60;1.00
15296;DHT22;7749;49.964;7.890;2023-09-12T02:44:48;20.70;1.00
15296;DHT22;7749;49.964;7.890;2023-09-12T02:47:16;20.70;1.00
15296;DHT22;7749;49.964;7.890;2023-09-12T02:49:43;20.80;1.00
15296;DHT22;7749;49.964;7.890;2023-09-12T02:52:10;20.90;1.00
15296;DHT22;7749;49.964;7.890;2023-09-12T02:54:38;21.00;1.00
15296;DHT22;7749;49.964;7.890;2023-09-12T02:57:05;21.10;1.00
15296;DHT22;7749;49.964;7.890;2023-09-12T02:59:33;21.10;1.00
15296;DHT22;7749;49.964;7.890;2023-09-12T03:02:00;21.20;1.00
15296;DHT22;7749;49.964;7.890;2023-09-12T03:04:29;21.20;1.00
15296;DHT22;7749;49.964;7.890;2023-09-12T03:06:57;21.20;1.00
15296;DHT22;7749;49.964;7.890;2023-09-12T03:09:24;21.20;1.00
15296;DHT22;7749;49.964;7.890;2023-09-12T03:11:52;21.20;1.00
15296;DHT22;7749;49.964;7.890;2023-09-12T03:14:19;21.20;1.00
15296;DHT22;7749;49.964;7.890;2023-09-12T03:16:47;21.10;1.00
15296;DHT22;7749;49.964;7.890;2023-09-12T03:19:14;21.00;1.00
15296;DHT22;7749;49.964;7.890;2023-09-12T03:21:42;20.90;1.00
15296;DHT22;7749;49.964;7.890;2023-09-12T03:24:09;20.90;1.00
15296;DHT22;7749;49.964;7.890;2023-09-12T03:26:39;20.90;1.00
15296;DHT22;7749;49.964;7.890;2023-09-12T03:29:07;20.90;1.00
15296;DHT22;7749;49.964;7.890;2023-09-12T03:31:35;21.00;1.00
15296;DHT22;7749;49.964;7.890;2023-09-12T03:34:03;21.00;1.00
15296;DHT22;7749;49.964;7.890;2023-09-12T03:36:30;20.90;1.00
15296;DHT22;7749;49.964;7.890;2023-09-12T03:38:58;20.90;1.00
15296;DHT22;7749;49.964;7.890;2023-09-12T03:41:25;20.90;1.00
15296;DHT22;7749;49.964;7.890;2023-09-12T03:43:54;20.90;1.00
15296;DHT22;7749;49.964;7.890;2023-09-12T03:46:22;20.90;1.00
15296;DHT22;7749;49.964;7.890;2023-09-12T03:48:50;20.80;1.00
15296;DHT22;7749;49.964;7.890;2023-09-12T03:51:18;20.70;1.00
15296;DHT22;7749;49.964;7.890;2023-09-12T03:53:45;20.40;1.00
15296;DHT22;7749;49.964;7.890;2023-09-12T03:56:15;20.30;99.90
15296;DHT22;7749;49.964;7.890;2023-09-12T03:58:42;20.20;99.90
15296;DHT22;7749;49.964;7.890;2023-09-12T04:01:10;20.20;99.90
15296;DHT22;7749;49.964;7.890;2023-09-12T04:03:38;20.20;99.90
15296;DHT22;7749;49.964;7.890;2023-09-12T04:06:06;20.20;99.90
15296;DHT22;7749;49.964;7.890;2023-09-12T04:08:33;20.20;99.90
15296;DHT22;7749;49.964;7.890;2023-09-12T04:11:00;20.30;99.90
15296;DHT22;7749;49.964;7.890;2023-09-12T04:13:28;20.40;99.90
15296;DHT22;7749;49.964;7.890;2023-09-12T04:15:55;20.60;99.90
15296;DHT22;7749;49.964;7.890;2023-09-12T04:18:23;20.70;99.90
15296;DHT22;7749;49.964;7.890;2023-09-12T04:20:50;20.80;99.90
15296;DHT22;7749;49.964;7.890;2023-09-12T04:23:18;20.90;1.00
15296;DHT22;7749;49.964;7.890;2023-09-12T04:25:46;20.90;1.00
15296;DHT22;7749;49.964;7.890;2023-09-12T04:28:13;21.00;1.00
15296;DHT22;7749;49.964;7.890;2023-09-12T04:30:41;21.00;1.00
15296;DHT22;7749;49.964;7.890;2023-09-12T04:33:12;21.00;1.00
15296;DHT22;7749;49.964;7.890;2023-09-12T04:35:39;21.10;1.00
15296;DHT22;7749;49.964;7.890;2023-09-12T04:38:07;21.00;1.00
15296;DHT22;7749;49.964;7.890;2023-09-12T04:40:35;21.00;1.00
15296;DHT22;7749;49.964;7.890;2023-09-12T04:43:03;20.70;1.00
15296;DHT22;7749;49.964;7.890;2023-09-12T04:45:33;20.60;1.00
15296;DHT22;7749;49.964;7.890;2023-09-12T04:48:00;20.60;1.00
15296;DHT22;7749;49.964;7.890;2023-09-12T04:50:28;20.50;99.90
15296;DHT22;7749;49.964;7.890;2023-09-12T04:52:55;20.20;99.90
15296;DHT22;7749;49.964;7.890;2023-09-12T04:55:22;20.10;99.90
15296;DHT22;7749;49.964;7.890;2023-09-12T04:57:50;20.00;99.90
15296;DHT22;7749;49.964;7.890;2023-09-12T05:00:17;20.00;99.90
15296;DHT22;7749;49.964;7.890;2023-09-12T05:02:45;20.00;99.90
15296;DHT22;7749;49.964;7.890;2023-09-12T05:05:12;20.20;99.90
15296;DHT22;7749;49.964;7.890;2023-09-12T05:07:40;20.40;99.90
15296;DHT22;7749;49.964;7.890;2023-09-12T05:10:07;20.50;99.90
15296;DHT22;7749;49.964;7.890;2023-09-12T05:12:35;20.60;99.90
15296;DHT22;7749;49.964;7.890;2023-09-12T05:15:03;20.70;99.90
15296;DHT22;7749;49.964;7.890;2023-09-12T05:17:30;20.70;99.90
15296;DHT22;7749;49.964;7.890;2023-09-12T05:19:57;20.80;99.90
15296;DHT22;7749;49.964;7.890;2023-09-12T05:22:25;20.90;99.90
15296;DHT22;7749;49.964;7.890;2023-09-12T05:24:52;20.90;99.90
15296;DHT22;7749;49.964;7.890;2023-09-12T05:27:20;20.80;99.90
15296;DHT22;7749;49.964;7.890;2023-09-12T05:29:47;20.70;99.90
15296;DHT22;7749;49.964;7.890;2023-09-12T05:32:15;20.60;99.90
15296;DHT22;7749;49.964;7.890;2023-09-12T05:34:44;20.40;99.90
15296;DHT22;7749;49.964;7.890;2023-09-12T05:37:12;20.30;99.90
15296;DHT22;7749;49.964;7.890;2023-09-12T05:39:39;20.30;99.90
15296;DHT22;7749;49.964;7.890;2023-09-12T05:42:07;20.30;99.90
15296;DHT22;7749;49.964;7.890;2023-09-12T05:44:34;20.30;99.90
15296;DHT22;7749;49.964;7.890;2023-09-12T05:47:02;20.30;99.90
15296;DHT22;7749;49.964;7.890;2023-09-12T05:49:29;20.20;99.90
15296;DHT22;7749;49.964;7.890;2023-09-12T05:51:58;20.20;99.90
15296;DHT22;7749;49.964;7.890;2023-09-12T05:54:25;20.20;99.90
15296;DHT22;7749;49.964;7.890;2023-09-12T05:56:53;20.20;99.90
15296;DHT22;7749;49.964;7.890;2023-09-12T05:59:21;20.30;99.90
15296;DHT22;7749;49.964;7.890;2023-09-12T06:01:48;20.40;99.90
15296;DHT22;7749;49.964;7.890;2023-09-12T06:04:16;20.50;99.90
15296;DHT22;7749;49.964;7.890;2023-09-12T06:06:44;20.60;99.90
15296;DHT22;7749;49.964;7.890;2023-09-12T06:09:12;20.40;99.90
15296;DHT22;7749;49.964;7.890;2023-09-12T06:11:40;20.40;99.90
15296;DHT22;7749;49.964;7.890;2023-09-12T06:14:07;20.60;99.90
15296;DHT22;7749;49.964;7.890;2023-09-12T06:16:35;20.70;99.90
15296;DHT22;7749;49.964;7.890;2023-09-12T06:19:02;20.90;99.90
15296;DHT22;7749;49.964;7.890;2023-09-12T06:21:30;21.00;99.90
15296;DHT22;7749;49.964;7.890;2023-09-12T06:24:15;21.10;99.90
15296;DHT22;7749;49.964;7.890;2023-09-12T06:26:45;21.20;99.90
15296;DHT22;7749;49.964;7.890;2023-09-12T06:29:14;21.30;99.90
15296;DHT22;7749;49.964;7.890;2023-09-12T06:31:41;21.50;99.90
15296;DHT22;7749;49.964;7.890;2023-09-12T06:34:10;21.60;99.90
15296;DHT22;7749;49.964;7.890;2023-09-12T06:36:38;21.60;99.90
15296;DHT22;7749;49.964;7.890;2023-09-12T06:39:06;21.70;99.90
15296;DHT22;7749;49.964;7.890;2023-09-12T06:41:33;21.70;99.90
15296;DHT22;7749;49.964;7.890;2023-09-12T06:44:01;21.70;99.90
15296;DHT22;7749;49.964;7.890;2023-09-12T06:46:30;21.70;99.90
15296;DHT22;7749;49.964;7.890;2023-09-12T06:48:57;21.80;99.90
15296;DHT22;7749;49.964;7.890;2023-09-12T06:51:25;21.90;99.90
15296;DHT22;7749;49.964;7.890;2023-09-12T06:53:58;21.90;99.90
15296;DHT22;7749;49.964;7.890;2023-09-12T06:56:26;22.00;99.90
15296;DHT22;7749;49.964;7.890;2023-09-12T06:58:54;22.10;99.90
15296;DHT22;7749;49.964;7.890;2023-09-12T07:01:22;22.20;99.90
15296;DHT22;7749;49.964;7.890;2023-09-12T07:03:50;22.10;99.90
15296;DHT22;7749;49.964;7.890;2023-09-12T07:06:21;22.20;99.90
15296;DHT22;7749;49.964;7.890;2023-09-12T07:08:49;22.40;99.90
15296;DHT22;7749;49.964;7.890;2023-09-12T07:11:17;22.50;1.00
15296;DHT22;7749;49.964;7.890;2023-09-12T07:13:46;22.70;1.00
15296;DHT22;7749;49.964;7.890;2023-09-12T07:16:14;22.70;1.00
15296;DHT22;7749;49.964;7.890;2023-09-12T07:18:41;22.80;1.00
15296;DHT22;7749;49.964;7.890;2023-09-12T07:21:09;22.80;1.00
15296;DHT22;7749;49.964;7.890;2023-09-12T07:23:38;22.80;99.90
15296;DHT22;7749;49.964;7.890;2023-09-12T07:26:06;22.80;1.00
15296;DHT22;7749;49.964;7.890;2023-09-12T07:28:38;22.80;1.00
15296;DHT22;7749;49.964;7.890;2023-09-12T07:31:06;22.90;1.00
15296;DHT22;7749;49.964;7.890;2023-09-12T07:33:33;23.10;99.90
15296;DHT22;7749;49.964;7.890;2023-09-12T07:36:01;23.10;99.90
15296;DHT22;7749;49.964;7.890;2023-09-12T07:38:30;23.20;99.90
15296;DHT22;7749;49.964;7.890;2023-09-12T07:41:02;23.20;99.90
15296;DHT22;7749;49.964;7.890;2023-09-12T07:43:30;23.20;5.80
15296;DHT22;7749;49.964;7.890;2023-09-12T07:45:58;23.30;18.40
15296;DHT22;7749;49.964;7.890;2023-09-12T07:48:26;23.40;13.90
15296;DHT22;7749;49.964;7.890;2023-09-12T07:50:55;23.60;1.00
15296;DHT22;7749;49.964;7.890;2023-09-12T07:53:22;23.50;1.00
15296;DHT22;7749;49.964;7.890;2023-09-12T07:55:50;23.60;99.90
15296;DHT22;7749;49.964;7.890;2023-09-12T07:58:18;23.60;99.90
15296;DHT22;7749;49.964;7.890;2023-09-12T08:00:46;23.70;1.00
15296;DHT22;7749;49.964;7.890;2023-09-12T08:03:14;23.70;35.10
15296;DHT22;7749;49.964;7.890;2023-09-12T08:05:43;23.60;99.90
15296;DHT22;7749;49.964;7.890;2023-09-12T08:08:10;23.70;99.90
15296;DHT22;7749;49.964;7.890;2023-09-12T08:10:37;23.80;99.90
15296;DHT22;7749;49.964;7.890;2023-09-12T08:13:05;23.80;99.90
15296;DHT22;7749;49.964;7.890;2023-09-12T08:15:32;24.00;1.00
15296;DHT22;7749;49.964;7.890;2023-09-12T08:18:00;24.00;1.00
15296;DHT22;7749;49.964;7.890;2023-09-12T08:20:28;24.20;99.90
15296;DHT22;7749;49.964;7.890;2023-09-12T08:22:55;24.40;1.00
15296;DHT22;7749;49.964;7.890;2023-09-12T08:25:22;24.40;99.90
15296;DHT22;7749;49.964;7.890;2023-09-12T08:27:51;24.50;1.00
15296;DHT22;7749;49.964;7.890;2023-09-12T08:30:19;24.60;1.00
15296;DHT22;7749;49.964;7.890;2023-09-12T08:32:46;24.80;99.90
15296;DHT22;7749;49.964;7.890;2023-09-12T08:35:14;25.00;99.90
15296;DHT22;7749;49.964;7.890;2023-09-12T08:37:42;25.10;99.90
15296;DHT22;7749;49.964;7.890;2023-09-12T08:40:11;25.20;1.00
15296;DHT22;7749;49.964;7.890;2023-09-12T08:42:40;25.30;1.00
15296;DHT22;7749;49.964;7.890;2023-09-12T08:45:12;25.40;1.00
15296;DHT22;7749;49.964;7.890;2023-09-12T08:47:41;25.40;99.90
15296;DHT22;7749;49.964;7.890;2023-09-12T08:50:11;25.50;99.90
15296;DHT22;7749;49.964;7.890;2023-09-12T08:52:40;25.60;99.90
15296;DHT22;7749;49.964;7.890;2023-09-12T08:55:26;25.70;99.90
15296;DHT22;7749;49.964;7.890;2023-09-12T09:00:36;25.70;1.00
15296;DHT22;7749;49.964;7.890;2023-09-12T09:03:11;25.70;1.00
15296;DHT22;7749;49.964;7.890;2023-09-12T09:05:49;25.80;1.00
15296;DHT22;7749;49.964;7.890;2023-09-12T09:08:22;25.90;1.00
15296;DHT22;7749;49.964;7.890;2023-09-12T09:11:01;26.00;1.00
15296;DHT22;7749;49.964;7.890;2023-09-12T09:13:33;26.10;1.00
15296;DHT22;7749;49.964;7.890;2023-09-12T09:19:04;26.20;1.00
15296;DHT22;7749;49.964;7.890;2023-09-12T09:21:38;26.30;99.90
15296;DHT22;7749;49.964;7.890;2023-09-12T09:24:09;26.40;99.90
15296;DHT22;7749;49.964;7.890;2023-09-12T09:26:51;26.40;93.80
15296;DHT22;7749;49.964;7.890;2023-09-12T09:29:20;26.50;25.20
15296;DHT22;7749;49.964;7.890;2023-09-12T09:31:49;26.80;50.40
15296;DHT22;7749;49.964;7.890;2023-09-12T09:34:19;26.90;9.20
15296;DHT22;7749;49.964;7.890;2023-09-12T09:36:48;26.90;1.00
15296;DHT22;7749;49.964;7.890;2023-09-12T09:39:18;27.10;1.00
15296;DHT22;7749;49.964;7.890;2023-09-12T09:41:50;27.20;1.00
15296;DHT22;7749;49.964;7.890;2023-09-12T09:44:19;27.00;1.00
15296;DHT22;7749;49.964;7.890;2023-09-12T09:46:51;27.10;1.00
15296;DHT22;7749;49.964;7.890;2023-09-12T09:49:20;27.20;1.00
15296;DHT22;7749;49.964;7.890;2023-09-12T09:51:48;27.30;1.00
15296;DHT22;7749;49.964;7.890;2023-09-12T09:54:16;27.40;1.00
15296;DHT22;7749;49.964;7.890;2023-09-12T09:56:53;27.70;1.00
15296;DHT22;7749;49.964;7.890;2023-09-12T09:59:25;27.90;1.00
15296;DHT22;7749;49.964;7.890;2023-09-12T10:01:59;28.10;1.00
15296;DHT22;7749;49.964;7.890;2023-09-12T10:04:29;28.00;99.90
15296;DHT22;7749;49.964;7.890;2023-09-12T10:06:57;28.20;99.90
15296;DHT22;7749;49.964;7.890;2023-09-12T10:09:30;28.30;99.90
15296;DHT22;7749;49.964;7.890;2023-09-12T10:11:58;28.60;99.90
15296;DHT22;7749;49.964;7.890;2023-09-12T10:14:27;28.90;99.90
15296;DHT22;7749;49.964;7.890;2023-09-12T10:17:01;29.30;99.90
15296;DHT22;7749;49.964;7.890;2023-09-12T10:19:56;29.70;99.90
15296;DHT22;7749;49.964;7.890;2023-09-12T10:22:34;30.20;99.90
15296;DHT22;7749;49.964;7.890;2023-09-12T10:25:05;30.30;99.90
15296;DHT22;7749;49.964;7.890;2023-09-12T10:27:33;30.40;99.90
15296;DHT22;7749;49.964;7.890;2023-09-12T10:30:02;30.70;99.90
15296;DHT22;7749;49.964;7.890;2023-09-12T10:32:32;31.10;99.90
15296;DHT22;7749;49.964;7.890;2023-09-12T10:35:02;31.00;99.90
15296;DHT22;7749;49.964;7.890;2023-09-12T10:37:31;30.90;99.90
15296;DHT22;7749;49.964;7.890;2023-09-12T10:40:08;31.20;99.90
15296;DHT22;7749;49.964;7.890;2023-09-12T10:42:36;31.50;99.90
15296;DHT22;7749;49.964;7.890;2023-09-12T10:45:05;31.50;99.90
15296;DHT22;7749;49.964;7.890;2023-09-12T10:47:36;31.80;99.90
15296;DHT22;7749;49.964;7.890;2023-09-12T10:50:52;31.70;99.90
15296;DHT22;7749;49.964;7.890;2023-09-12T10:53:14;31.90;99.90
15296;DHT22;7749;49.964;7.890;2023-09-12T10:56:00;32.00;99.90
15296;DHT22;7749;49.964;7.890;2023-09-12T10:58:31;31.90;99.90
15296;DHT22;7749;49.964;7.890;2023-09-12T11:01:21;31.80;99.90
15296;DHT22;7749;49.964;7.890;2023-09-12T11:03:52;31.90;99.90
15296;DHT22;7749;49.964;7.890;2023-09-12T11:06:29;32.30;99.90
15296;DHT22;7749;49.964;7.890;2023-09-12T11:09:17;32.90;99.90
15296;DHT22;7749;49.964;7.890;2023-09-12T11:12:04;34.50;97.30
15296;DHT22;7749;49.964;7.890;2023-09-12T11:15:07;36.20;94.40
15296;DHT22;7749;49.964;7.890;2023-09-12T11:17:48;38.20;1.00
15296;DHT22;7749;49.964;7.890;2023-09-12T11:21:07;39.40;1.00
15296;DHT22;7749;49.964;7.890;2023-09-12T11:23:53;40.20;1.00
15296;DHT22;7749;49.964;7.890;2023-09-12T11:30:32;40.70;1.00
15296;DHT22;7749;49.964;7.890;2023-09-12T11:33:36;39.80;1.00
15296;DHT22;7749;49.964;7.890;2023-09-12T11:36:18;38.70;1.00
15296;DHT22;7749;49.964;7.890;2023-09-12T11:38:51;39.40;1.00
15296;DHT22;7749;49.964;7.890;2023-09-12T11:42:00;40.40;1.00
15296;DHT22;7749;49.964;7.890;2023-09-12T11:45:02;40.40;1.00
15296;DHT22;7749;49.964;7.890;2023-09-12T11:47:43;40.60;1.00
15296;DHT22;7749;49.964;7.890;2023-09-12T11:53:06;39.00;1.00
15296;DHT22;7749;49.964;7.890;2023-09-12T11:55:53;39.10;1.00
15296;DHT22;7749;49.964;7.890;2023-09-12T11:58:24;38.80;1.00
15296;DHT22;7749;49.964;7.890;2023-09-12T12:01:03;39.40;1.00
15296;DHT22;7749;49.964;7.890;2023-09-12T12:03:41;40.20;1.00
15296;DHT22;7749;49.964;7.890;2023-09-12T12:06:21;40.80;1.00
15296;DHT22;7749;49.964;7.890;2023-09-12T12:09:43;41.80;1.00
15296;DHT22;7749;49.964;7.890;2023-09-12T12:12:23;42.60;1.00
15296;DHT22;7749;49.964;7.890;2023-09-12T12:15:01;43.70;1.00
15296;DHT22;7749;49.964;7.890;2023-09-12T12:17:40;44.00;1.00
15296;DHT22;7749;49.964;7.890;2023-09-12T12:20:15;43.90;1.00
15296;DHT22;7749;49.964;7.890;2023-09-12T12:22:42;43.50;1.00
15296;DHT22;7749;49.964;7.890;2023-09-12T12:25:11;43.50;1.00
15296;DHT22;7749;49.964;7.890;2023-09-12T12:27:39;43.40;1.00
15296;DHT22;7749;49.964;7.890;2023-09-12T12:30:12;43.10;1.00
15296;DHT22;7749;49.964;7.890;2023-09-12T12:32:43;42.90;1.00
15296;DHT22;7749;49.964;7.890;2023-09-12T12:35:20;43.20;1.00
15296;DHT22;7749;49.964;7.890;2023-09-12T12:38:12;42.60;1.00
15296;DHT22;7749;49.964;7.890;2023-09-12T12:40:40;42.40;1.00
15296;DHT22;7749;49.964;7.890;2023-09-12T12:43:18;43.40;1.00
15296;DHT22;7749;49.964;7.890;2023-09-12T12:45:57;43.60;1.00
15296;DHT22;7749;49.964;7.890;2023-09-12T12:48:33;44.00;1.00
15296;DHT22;7749;49.964;7.890;2023-09-12T12:53:46;45.00;1.00
15296;DHT22;7749;49.964;7.890;2023-09-12T12:56:29;44.80;1.00
15296;DHT22;7749;49.964;7.890;2023-09-12T12:58:59;44.10;1.00
15296;DHT22;7749;49.964;7.890;2023-09-12T13:01:30;42.60;1.00
15296;DHT22;7749;49.964;7.890;2023-09-12T13:03:58;41.50;1.00
15296;DHT22;7749;49.964;7.890;2023-09-12T13:06:26;40.10;1.00
15296;DHT22;7749;49.964;7.890;2023-09-12T13:08:55;39.70;1.00
15296;DHT22;7749;49.964;7.890;2023-09-12T13:11:24;40.40;1.00
15296;DHT22;7749;49.964;7.890;2023-09-12T13:13:52;39.90;1.00
15296;DHT22;7749;49.964;7.890;2023-09-12T13:16:19;39.60;1.00
15296;DHT22;7749;49.964;7.890;2023-09-12T13:18:47;40.10;1.00
15296;DHT22;7749;49.964;7.890;2023-09-12T13:21:15;39.90;1.00
15296;DHT22;7749;49.964;7.890;2023-09-12T13:23:42;39.30;1.00
15296;DHT22;7749;49.964;7.890;2023-09-12T13:26:10;39.70;1.00
15296;DHT22;7749;49.964;7.890;2023-09-12T13:28:37;39.80;1.00
15296;DHT22;7749;49.964;7.890;2023-09-12T13:31:05;40.20;1.00
15296;DHT22;7749;49.964;7.890;2023-09-12T13:33:33;39.90;1.00
15296;DHT22;7749;49.964;7.890;2023-09-12T13:36:01;40.20;1.00
15296;DHT22;7749;49.964;7.890;2023-09-12T13:38:28;39.00;1.00
15296;DHT22;7749;49.964;7.890;2023-09-12T13:40:56;39.20;1.00
15296;DHT22;7749;49.964;7.890;2023-09-12T13:43:23;39.10;1.00
15296;DHT22;7749;49.964;7.890;2023-09-12T13:45:50;39.60;1.00
15296;DHT22;7749;49.964;7.890;2023-09-12T13:48:18;39.40;1.00
15296;DHT22;7749;49.964;7.890;2023-09-12T13:50:46;38.50;1.00
15296;DHT22;7749;49.964;7.890;2023-09-12T13:53:13;38.80;1.00
15296;DHT22;7749;49.964;7.890;2023-09-12T13:55:41;38.90;1.00
15296;DHT22;7749;49.964;7.890;2023-09-12T13:58:26;39.40;1.00
15296;DHT22;7749;49.964;7.890;2023-09-12T14:01:07;40.00;1.00
15296;DHT22;7749;49.964;7.890;2023-09-12T14:03:36;40.70;1.00
15296;DHT22;7749;49.964;7.890;2023-09-12T14:06:04;40.90;1.00
15296;DHT22;7749;49.964;7.890;2023-09-12T14:08:32;41.10;1.00
15296;DHT22;7749;49.964;7.890;2023-09-12T14:10:59;41.20;1.00
15296;DHT22;7749;49.964;7.890;2023-09-12T14:13:27;40.70;1.00
15296;DHT22;7749;49.964;7.890;2023-09-12T14:15:55;40.00;1.00
15296;DHT22;7749;49.964;7.890;2023-09-12T14:18:24;38.30;1.00
15296;DHT22;7749;49.964;7.890;2023-09-12T14:20:53;37.30;1.00
15296;DHT22;7749;49.964;7.890;2023-09-12T14:23:21;36.40;1.00
15296;DHT22;7749;49.964;7.890;2023-09-12T14:25:49;36.10;1.00
15296;DHT22;7749;49.964;7.890;2023-09-12T14:28:17;35.30;1.00
15296;DHT22;7749;49.964;7.890;2023-09-12T14:30:45;35.60;1.00
15296;DHT22;7749;49.964;7.890;2023-09-12T14:33:13;36.20;1.00
15296;DHT22;7749;49.964;7.890;2023-09-12T14:35:44;36.60;1.00
15296;DHT22;7749;49.964;7.890;2023-09-12T14:38:12;37.40;1.00
15296;DHT22;7749;49.964;7.890;2023-09-12T14:40:40;38.20;1.00
15296;DHT22;7749;49.964;7.890;2023-09-12T14:43:12;38.30;1.00
15296;DHT22;7749;49.964;7.890;2023-09-12T14:45:39;37.80;1.00
15296;DHT22;7749;49.964;7.890;2023-09-12T14:48:07;37.40;1.00
15296;DHT22;7749;49.964;7.890;2023-09-12T14:50:35;37.40;1.00
15296;DHT22;7749;49.964;7.890;2023-09-12T14:53:12;36.00;1.00
15296;DHT22;7749;49.964;7.890;2023-09-12T14:55:41;35.80;1.00
15296;DHT22;7749;49.964;7.890;2023-09-12T14:58:09;35.80;1.00
15296;DHT22;7749;49.964;7.890;2023-09-12T15:00:37;35.90;1.00
15296;DHT22;7749;49.964;7.890;2023-09-12T15:03:05;36.20;1.00
15296;DHT22;7749;49.964;7.890;2023-09-12T15:05:33;37.30;1.00
15296;DHT22;7749;49.964;7.890;2023-09-12T15:08:01;38.20;1.00
15296;DHT22;7749;49.964;7.890;2023-09-12T15:10:28;37.80;1.00
15296;DHT22;7749;49.964;7.890;2023-09-12T15:12:56;36.70;1.00
15296;DHT22;7749;49.964;7.890;2023-09-12T15:15:23;35.10;1.00
15296;DHT22;7749;49.964;7.890;2023-09-12T15:17:51;33.60;1.00
15296;DHT22;7749;49.964;7.890;2023-09-12T15:20:18;33.60;1.00
15296;DHT22;7749;49.964;7.890;2023-09-12T15:22:46;35.00;1.00
15296;DHT22;7749;49.964;7.890;2023-09-12T15:25:13;35.80;1.00
15296;DHT22;7749;49.964;7.890;2023-09-12T15:27:41;35.50;1.00
15296;DHT22;7749;49.964;7.890;2023-09-12T15:30:09;34.80;1.00
15296;DHT22;7749;49.964;7.890;2023-09-12T15:32:37;35.00;1.00
15296;DHT22;7749;49.964;7.890;2023-09-12T15:35:04;35.60;1.00
15296;DHT22;7749;49.964;7.890;2023-09-12T15:37:32;35.40;1.00
15296;DHT22;7749;49.964;7.890;2023-09-12T15:40:00;35.00;1.00
15296;DHT22;7749;49.964;7.890;2023-09-12T15:42:27;34.80;1.00
15296;DHT22;7749;49.964;7.890;2023-09-12T15:45:04;34.80;1.00
15296;DHT22;7749;49.964;7.890;2023-09-12T15:47:35;34.10;1.00
15296;DHT22;7749;49.964;7.890;2023-09-12T15:50:03;33.80;1.00
15296;DHT22;7749;49.964;7.890;2023-09-12T15:52:31;34.00;1.00
15296;DHT22;7749;49.964;7.890;2023-09-12T15:55:06;33.30;1.00
15296;DHT22;7749;49.964;7.890;2023-09-12T15:57:34;32.50;1.00
15296;DHT22;7749;49.964;7.890;2023-09-12T16:00:05;32.10;1.00
15296;DHT22;7749;49.964;7.890;2023-09-12T16:02:36;31.70;1.00
15296;DHT22;7749;49.964;7.890;2023-09-12T16:05:04;31.60;1.00
15296;DHT22;7749;49.964;7.890;2023-09-12T16:07:32;31.30;1.00
15296;DHT22;7749;49.964;7.890;2023-09-12T16:09:59;31.00;1.00
15296;DHT22;7749;49.964;7.890;2023-09-12T16:12:27;30.90;1.00
15296;DHT22;7749;49.964;7.890;2023-09-12T16:14:55;31.40;1.00
15296;DHT22;7749;49.964;7.890;2023-09-12T16:17:25;31.60;1.00
15296;DHT22;7749;49.964;7.890;2023-09-12T16:19:52;31.30;1.00
15296;DHT22;7749;49.964;7.890;2023-09-12T16:22:21;30.90;1.00
15296;DHT22;7749;49.964;7.890;2023-09-12T16:24:48;30.30;1.00
15296;DHT22;7749;49.964;7.890;2023-09-12T16:27:16;30.30;12.10
15296;DHT22;7749;49.964;7.890;2023-09-12T16:29:49;30.20;77.20
15296;DHT22;7749;49.964;7.890;2023-09-12T16:32:18;30.10;99.90
15296;DHT22;7749;49.964;7.890;2023-09-12T16:34:45;29.90;99.90